Time;durP1;ratioP1;P1;durP2;ratioP2;P2;SDS_P1;SDS_P2;PMS_P1;PMS_P2;Temp;Humidity;BMP_temperature;BMP_pressure;BME280_temperature;BME280_humidity;BME280_pressure;Samples;Min_cycle;Max_cycle;Signal;HPM_P1;HPM_P2
2021/03/18 00:02:44;;;;;;;27.73;13.03;;;;;;;0.92;72.28;101441.16;8972944;32;20244;-72
2021/03/18 00:07:47;;;;;;;26.87;12.03;;;;;;;0.86;71.70;101436.00;8972381;32;20733;-74
2021/03/18 00:12:50;;;;;;;19.57;11.50;;;;;;;0.61;72.18;101431.31;8973305;32;20221;-75
2021/03/18 00:17:52;;;;;;;20.60;11.93;;;;;;;0.23;72.98;101441.84;8978100;32;20769;-74
2021/03/18 00:22:54;;;;;;;21.53;12.33;;;;;;;0.28;73.41;101434.69;8977648;32;20254;-75
2021/03/18 00:27:58;;;;;;;24.97;13.60;;;;;;;0.27;73.33;101436.44;8977875;32;20239;-75
2021/03/18 00:33:01;;;;;;;20.53;12.47;;;;;;;0.25;73.80;101446.22;8977710;32;20223;-73
2021/03/18 00:38:03;;;;;;;26.27;11.90;;;;;;;0.23;73.62;101447.13;8977182;32;20248;-75
2021/03/18 00:43:09;;;;;;;21.00;12.77;;;;;;;0.26;74.04;101442.66;8977270;32;20220;-74
2021/03/18 00:48:15;;;;;;;24.67;12.70;;;;;;;0.29;74.48;101439.06;8951285;32;20217;-74
2021/03/18 00:53:21;;;;;;;23.53;13.47;;;;;;;0.23;74.40;101452.44;8944098;32;20357;-74
2021/03/18 00:58:25;;;;;;;24.23;13.20;;;;;;;0.24;74.52;101459.44;8916175;32;20225;-75
2021/03/18 01:03:32;;;;;;;22.87;12.07;;;;;;;0.11;74.82;101453.53;8915032;32;20244;-74
2021/03/18 01:08:37;;;;;;;21.43;12.93;;;;;;;0.09;75.36;101461.50;8914964;32;20322;-74
2021/03/18 01:13:44;;;;;;;24.60;13.73;;;;;;;0.28;75.23;101459.34;8915509;32;20233;-73
2021/03/18 01:18:50;;;;;;;29.40;15.00;;;;;;;0.43;74.65;101458.13;8914347;32;20230;-73
2021/03/18 01:23:53;;;;;;;30.47;14.97;;;;;;;0.65;74.41;101455.03;8914706;32;20574;-72
2021/03/18 01:28:56;;;;;;;33.40;16.90;;;;;;;0.93;74.27;101447.31;8913985;32;20229;-73
2021/03/18 01:33:58;;;;;;;32.87;15.27;;;;;;;1.16;73.86;101457.34;8914658;32;20228;-73
2021/03/18 01:39:02;;;;;;;38.13;17.43;;;;;;;1.23;73.49;101453.63;8913851;32;20690;-73
2021/03/18 01:44:06;;;;;;;37.47;17.80;;;;;;;1.34;73.84;101432.16;8914566;32;20234;-74
2021/03/18 01:49:09;;;;;;;41.07;19.30;;;;;;;1.48;74.12;101420.31;8914146;32;20753;-74
2021/03/18 01:54:12;;;;;;;41.73;20.20;;;;;;;1.56;73.98;101417.44;8931960;32;20745;-74
2021/03/18 01:59:15;;;;;;;42.47;18.63;;;;;;;1.50;73.81;101428.22;8974109;32;20228;-74
2021/03/18 02:04:17;;;;;;;42.47;18.30;;;;;;;1.43;74.13;101416.06;8973999;32;20220;-74
2021/03/18 02:09:19;;;;;;;43.13;18.83;;;;;;;1.49;74.18;101411.47;8973838;32;20213;-74
2021/03/18 02:14:23;;;;;;;49.97;21.43;;;;;;;1.55;74.11;101410.44;8974479;32;20232;-74
2021/03/18 02:19:57;;;;;;;76.30;20.20;;;;;;;1.29;75.17;101395.25;8973758;32;20228;-74
2021/03/18 02:25:04;;;;;;;79.80;23.77;;;;;;;1.14;76.47;101388.56;8973641;32;20212;-74
2021/03/18 02:30:52;;;;;;;68.27;23.97;;;;;;;1.29;75.74;101387.31;8973561;32;20224;-74
2021/03/18 02:35:58;;;;;;;48.07;19.90;;;;;;;1.16;75.84;101376.16;8968728;32;20259;-74
2021/03/18 02:41:06;;;;;;;68.23;23.07;;;;;;;1.16;75.99;101381.44;8973455;32;20674;-74
2021/03/18 02:46:09;;;;;;;76.73;22.30;;;;;;;1.06;76.24;101382.59;8973341;32;20756;-74
2021/03/18 02:51:16;;;;;;;69.53;20.87;;;;;;;1.30;76.42;101378.44;8973190;32;20227;-73
2021/03/18 02:56:21;;;;;;;64.70;22.50;;;;;;;1.37;76.11;101379.13;8929226;32;20226;-74
2021/03/18 03:01:24;;;;;;;58.37;22.57;;;;;;;1.42;76.08;101369.28;8912422;32;20627;-74
2021/03/18 03:06:30;;;;;;;86.20;25.23;;;;;;;1.27;75.73;101366.16;8912299;32;20229;-74
2021/03/18 03:11:34;;;;;;;72.60;20.37;;;;;;;0.95;76.39;101369.63;8912197;32;20226;-74
2021/03/18 03:16:36;;;;;;;85.80;24.13;;;;;;;0.76;76.94;101357.78;8911818;32;20221;-73
2021/03/18 03:21:40;;;;;;;45.27;18.83;;;;;;;0.61;78.39;101367.81;8911968;32;20221;-73
2021/03/18 03:26:43;;;;;;;76.27;22.50;;;;;;;0.75;78.00;101372.78;8911293;32;20225;-73
2021/03/18 03:31:46;;;;;;;91.53;26.33;;;;;;;0.64;78.23;101377.47;8912579;32;21491;-73
2021/03/18 03:36:50;;;;;;;94.73;23.67;;;;;;;0.57;78.01;101378.50;8911220;32;20718;-73
2021/03/18 03:41:52;;;;;;;62.73;21.53;;;;;;;0.67;78.11;101368.59;8911589;32;20230;-73
2021/03/18 03:46:54;;;;;;;83.07;20.53;;;;;;;0.67;77.86;101364.16;8911029;32;20852;-73
2021/03/18 03:52:12;;;;;;;90.00;25.03;;;;;;;0.68;78.11;101367.69;8916756;32;20320;-73
2021/03/18 03:57:23;;;;;;;93.77;25.93;;;;;;;0.97;78.05;101349.31;8971609;32;20618;-73
2021/03/18 04:02:29;;;;;;;74.70;21.50;;;;;;;0.79;77.87;101349.75;8977810;32;20622;-73
2021/03/18 04:07:37;;;;;;;104.53;25.87;;;;;;;0.62;77.43;101355.47;8976723;32;20263;-74
2021/03/18 04:12:44;;;;;;;75.93;22.70;;;;;;;0.03;78.82;101361.25;8977645;32;20262;-74
2021/03/18 04:17:51;;;;;;;69.80;21.87;;;;;;;0.60;78.84;101365.22;8951006;32;20240;-74
2021/03/18 04:22:58;;;;;;;86.17;23.37;;;;;;;0.92;78.18;101368.84;8976862;32;20283;-74
2021/03/18 04:28:01;;;;;;;70.87;23.93;;;;;;;1.11;78.07;101364.81;8950974;32;20229;-74
2021/03/18 04:33:05;;;;;;;73.23;23.50;;;;;;;1.18;77.77;101360.22;8977060;32;20225;-74
2021/03/18 04:38:08;;;;;;;80.50;24.60;;;;;;;0.98;77.24;101351.03;8976439;32;20274;-75
2021/03/18 04:43:11;;;;;;;88.33;21.37;;;;;;;0.71;77.20;101343.78;8950639;32;20277;-74
2021/03/18 04:48:15;;;;;;;65.67;20.60;;;;;;;0.48;78.16;101339.94;8976289;32;20304;-74
2021/03/18 04:53:21;;;;;;;62.87;20.20;;;;;;;0.35;77.66;101341.13;8971057;32;20260;-74
2021/03/18 04:58:23;;;;;;;55.43;20.27;;;;;;;0.31;78.29;101335.06;8914613;32;20217;-74
2021/03/18 05:03:27;;;;;;;56.17;20.90;;;;;;;0.58;77.70;101337.97;8914847;32;20229;-74
2021/03/18 05:08:31;;;;;;;67.73;22.90;;;;;;;0.43;77.88;101343.59;8915254;32;21455;-73
2021/03/18 05:13:35;;;;;;;95.90;23.20;;;;;;;0.38;78.40;101339.31;8915351;32;20734;-73
2021/03/18 05:18:37;;;;;;;80.93;24.53;;;;;;;0.51;78.15;101324.00;8914676;32;20217;-73
2021/03/18 05:23:41;;;;;;;69.17;22.50;;;;;;;0.56;78.28;101321.25;8913471;32;20221;-72
2021/03/18 05:28:43;;;;;;;50.77;20.47;;;;;;;0.66;77.72;101324.53;8914268;32;20349;-73
2021/03/18 05:33:46;;;;;;;60.20;23.67;;;;;;;0.67;77.74;101321.84;8914430;32;20233;-74
2021/03/18 05:38:49;;;;;;;74.00;22.17;;;;;;;0.68;77.53;101318.28;8914152;32;20750;-74
2021/03/18 05:43:51;;;;;;;59.67;22.40;;;;;;;0.81;77.84;101319.72;8914095;32;20234;-75
2021/03/18 05:48:54;;;;;;;75.57;24.43;;;;;;;0.97;77.53;101319.34;8914427;32;20257;-75
2021/03/18 05:53:59;;;;;;;58.07;22.13;;;;;;;0.91;76.98;101319.50;8929341;32;20241;-74
2021/03/18 05:59:01;;;;;;;62.43;21.63;;;;;;;0.64;77.37;101314.00;8974901;32;20613;-74
2021/03/18 06:04:04;;;;;;;51.57;21.60;;;;;;;0.70;77.65;101308.53;8974446;32;20224;-74
2021/03/18 06:09:08;;;;;;;61.97;22.07;;;;;;;0.69;77.80;101313.88;8974255;32;20269;-74
2021/03/18 06:14:10;;;;;;;54.87;21.77;;;;;;;0.79;77.65;101312.72;8973561;32;21628;-74
2021/03/18 06:19:13;;;;;;;63.03;21.07;;;;;;;0.77;77.34;101311.94;8973878;32;20221;-74
2021/03/18 06:24:16;;;;;;;60.03;23.93;;;;;;;0.91;77.47;101301.84;8974087;32;21504;-74
2021/03/18 06:29:32;;;;;;;54.90;21.77;;;;;;;0.86;76.98;101295.81;8974054;32;20216;-74
2021/03/18 06:34:40;;;;;;;69.70;25.23;;;;;;;0.90;77.41;101288.66;8974781;32;20224;-75
2021/03/18 06:39:43;;;;;;;67.37;23.73;;;;;;;0.80;77.23;101293.31;8973621;32;20224;-76
2021/03/18 06:44:45;;;;;;;58.83;23.20;;;;;;;0.59;78.08;101295.59;8974271;32;20229;-72
2021/03/18 06:50:02;;;;;;;54.50;20.60;;;;;;;1.06;77.46;101295.25;8973715;32;20235;-72
2021/03/18 06:55:08;;;;;;;60.77;22.13;;;;;;;0.94;76.33;101292.97;8944504;32;20220;-74
2021/03/18 07:00:12;;;;;;;55.13;20.20;;;;;;;0.53;77.34;101297.53;8911160;32;20611;-73
2021/03/18 07:05:19;;;;;;;54.00;24.10;;;;;;;0.75;77.57;101293.44;8913889;32;20356;-73
2021/03/18 07:10:35;;;;;;;60.27;23.63;;;;;;;1.19;76.90;101301.97;8918825;32;20786;-74
2021/03/18 07:15:37;;;;;;;61.30;19.70;;;;;;;1.14;76.29;101298.56;8914757;32;20220;-74
2021/03/18 07:20:54;;;;;;;21.80;9.63;;;;;;;0.95;77.19;101297.34;8913061;32;20749;-74
2021/03/18 07:25:57;;;;;;;89.93;28.13;;;;;;;1.32;76.54;101309.56;8916767;32;20229;-74
2021/03/18 07:31:00;;;;;;;80.70;25.97;;;;;;;1.50;75.40;101309.03;8918327;32;20625;-74
2021/03/18 07:36:05;;;;;;;55.37;23.43;;;;;;;1.63;74.65;101310.44;8916717;32;20722;-74
2021/03/18 07:41:13;;;;;;;42.93;18.00;;;;;;;1.42;73.25;101303.97;8916703;32;20316;-74
2021/03/18 07:46:19;;;;;;;29.30;12.63;;;;;;;0.90;74.88;101310.66;8918234;32;20707;-74
2021/03/18 07:51:21;;;;;;;47.57;18.53;;;;;;;1.07;75.34;101299.66;8918114;32;20715;-73
2021/03/18 07:56:25;;;;;;;37.33;14.13;;;;;;;1.36;74.15;101293.56;8962532;32;20646;-73
2021/03/18 08:01:42;;;;;;;39.77;15.07;;;;;;;1.29;74.18;101297.31;8978446;32;21851;-74
2021/03/18 08:06:54;;;;;;;49.23;20.63;;;;;;;1.43;75.23;101295.13;8974413;32;20256;-73
2021/03/18 08:11:57;;;;;;;46.07;18.50;;;;;;;1.77;73.60;101290.63;8952639;32;20288;-74
2021/03/18 08:16:59;;;;;;;30.13;11.03;;;;;;;1.46;73.86;101297.69;8977528;32;20228;-74
2021/03/18 08:22:02;;;;;;;40.33;19.50;;;;;;;1.43;74.05;101287.19;8952099;32;20632;-73
2021/03/18 08:27:07;;;;;;;31.53;14.07;;;;;;;1.15;75.01;101297.69;8977785;32;20240;-74
2021/03/18 08:32:11;;;;;;;37.47;14.83;;;;;;;1.24;74.38;101304.50;8977742;32;20229;-74
2021/03/18 08:37:16;;;;;;;33.43;15.60;;;;;;;1.59;73.95;101300.84;8976883;32;20240;-73
2021/03/18 08:42:42;;;;;;;37.97;16.97;;;;;;;2.11;72.87;101301.94;8978645;32;20219;-75
2021/03/18 08:47:47;;;;;;;43.87;17.73;;;;;;;2.25;71.09;101284.69;8976817;32;20240;-74
2021/03/18 08:52:58;;;;;;;40.43;16.53;;;;;;;1.85;71.77;101293.91;8974998;32;20323;-74
2021/03/18 08:58:01;;;;;;;37.87;15.77;;;;;;;1.90;72.81;101289.34;8916924;32;20619;-73
2021/03/18 09:03:07;;;;;;;44.27;17.43;;;;;;;2.12;72.74;101285.09;8904107;32;20230;-73
2021/03/18 09:08:10;;;;;;;43.93;18.80;;;;;;;2.29;71.89;101283.69;8914690;32;21438;-73
2021/03/18 09:13:17;;;;;;;43.07;17.57;;;;;;;2.30;71.11;101277.47;8915917;32;20602;-73
2021/03/18 09:18:22;;;;;;;41.90;17.07;;;;;;;2.40;71.39;101290.38;8915681;32;20229;-73
2021/03/18 09:23:28;;;;;;;44.30;19.33;;;;;;;2.33;70.93;101286.22;8914317;32;20233;-73
2021/03/18 09:28:33;;;;;;;45.03;17.13;;;;;;;2.08;71.66;101286.09;8915194;32;20220;-73
2021/03/18 09:33:38;;;;;;;32.43;14.43;;;;;;;2.26;72.40;101287.31;8916155;32;20938;-73
2021/03/18 09:38:42;;;;;;;31.37;12.13;;;;;;;2.52;69.10;101285.59;8915773;32;20233;-73
2021/03/18 09:43:46;;;;;;;25.77;11.20;;;;;;;2.38;68.59;101272.78;8913743;32;20229;-74
2021/03/18 09:48:48;;;;;;;15.53;6.40;;;;;;;2.49;68.26;101273.28;8913263;32;20226;-73
2021/03/18 09:54:00;;;;;;;25.00;10.97;;;;;;;2.23;69.57;101262.69;8928571;32;20988;-74
2021/03/18 09:59:05;;;;;;;27.90;12.50;;;;;;;2.67;69.84;101255.06;8975218;32;20208;-74
2021/03/18 10:04:11;;;;;;;30.80;12.23;;;;;;;2.78;68.76;101251.13;8937146;32;20725;-73
2021/03/18 10:09:20;;;;;;;23.03;9.13;;;;;;;2.66;69.11;101248.91;8949332;32;20217;-74
2021/03/18 10:14:25;;;;;;;31.27;12.60;;;;;;;2.52;69.77;101246.66;8975393;32;20216;-74
2021/03/18 10:19:46;;;;;;;25.40;11.33;;;;;;;2.65;69.01;101238.34;8974827;32;21759;-73
2021/03/18 10:25:07;;;;;;;26.33;12.30;;;;;;;2.78;68.25;101235.19;8974616;32;20233;-74
2021/03/18 10:30:15;;;;;;;18.20;10.97;;;;;;;2.88;67.94;101235.75;8974467;32;20220;-73
2021/03/18 10:35:18;;;;;;;19.73;10.47;;;;;;;3.16;66.49;101229.44;8974486;32;20240;-73
2021/03/18 10:40:25;;;;;;;18.10;9.40;;;;;;;3.11;66.48;101213.69;8974487;32;20220;-74
2021/03/18 10:45:32;;;;;;;16.87;9.60;;;;;;;2.97;67.04;101223.94;8948675;32;20224;-74
2021/03/18 10:50:36;;;;;;;19.90;11.40;;;;;;;3.65;65.67;101220.50;8974339;32;20224;-74
2021/03/18 10:55:42;;;;;;;14.30;8.33;;;;;;;3.15;66.29;101215.28;8974044;32;20220;-73
2021/03/18 11:00:45;;;;;;;23.93;11.23;;;;;;;3.04;68.21;101212.16;8973739;32;20225;-74
2021/03/18 11:05:51;;;;;;;24.67;10.03;;;;;;;2.63;68.88;101209.19;8973856;32;20271;-74
2021/03/18 11:10:54;;;;;;;18.27;10.33;;;;;;;2.91;67.39;101216.16;8948421;32;20253;-74
2021/03/18 11:16:03;;;;;;;22.90;10.03;;;;;;;2.72;68.35;101205.38;8974204;32;20235;-74
2021/03/18 11:21:19;;;;;;;19.10;10.97;;;;;;;2.93;67.46;101195.75;8974165;32;20225;-74
2021/03/18 11:26:24;;;;;;;19.80;10.67;;;;;;;2.03;69.45;101195.28;8948154;32;20740;-73
2021/03/18 11:31:29;;;;;;;20.20;9.43;;;;;;;2.48;68.92;101196.44;8947806;32;20808;-74
2021/03/18 11:36:31;;;;;;;22.33;11.43;;;;;;;1.94;69.76;101198.22;8948054;32;20824;-74
2021/03/18 11:41:33;;;;;;;21.20;10.80;;;;;;;2.31;69.10;101189.94;8973450;32;20289;-72
2021/03/18 11:46:37;;;;;;;22.70;10.03;;;;;;;2.10;69.92;101172.09;8972064;32;20235;-71
2021/03/18 11:51:40;;;;;;;23.67;11.23;;;;;;;2.73;67.97;101165.50;8974524;32;20228;-74
2021/03/18 11:56:42;;;;;;;24.90;11.07;;;;;;;3.17;66.99;101165.66;8972530;32;20903;-74
2021/03/18 12:01:46;;;;;;;22.70;11.37;;;;;;;3.38;66.50;101158.66;8973990;32;20227;-74
2021/03/18 12:06:50;;;;;;;29.77;13.00;;;;;;;3.30;67.20;101151.91;8972857;32;20261;-75
2021/03/18 12:11:52;;;;;;;29.07;12.47;;;;;;;3.24;67.28;101137.09;8976602;32;20902;-75
2021/03/18 12:16:55;;;;;;;32.33;12.83;;;;;;;2.97;68.40;101123.06;8978015;32;20221;-75
2021/03/18 12:21:58;;;;;;;35.10;13.50;;;;;;;3.31;66.64;101117.31;8978270;32;20216;-74
2021/03/18 12:27:00;;;;;;;29.60;13.07;;;;;;;3.66;65.63;101115.06;8977430;32;20263;-75
2021/03/18 12:32:04;;;;;;;29.87;11.97;;;;;;;4.42;64.29;101103.00;8978746;32;20713;-75
2021/03/18 12:37:06;;;;;;;31.60;13.43;;;;;;;5.98;59.92;101094.78;8977588;32;20273;-74
2021/03/18 12:42:11;;;;;;;26.30;12.07;;;;;;;6.77;57.49;101079.03;8978151;32;20267;-74
2021/03/18 12:47:14;;;;;;;25.50;11.15;;;;;;;7.15;54.01;101067.22;8976579;32;20232;-75
2021/03/18 12:52:16;;;;;;;20.90;9.95;;;;;;;6.11;57.67;101060.31;8977246;32;20329;-74
2021/03/18 12:57:19;;;;;;;28.58;12.63;;;;;;;7.19;56.29;101047.44;8976717;32;20248;-75
2021/03/18 13:02:22;;;;;;;26.27;11.13;;;;;;;7.40;53.98;101031.97;8977311;32;20213;-75
2021/03/18 13:07:24;;;;;;;29.70;12.48;;;;;;;6.36;56.10;101036.75;8976517;32;20232;-75
2021/03/18 13:12:27;;;;;;;30.48;12.48;;;;;;;5.92;57.55;101021.28;8976925;32;20220;-75
2021/03/18 13:17:30;;;;;;;27.40;12.38;;;;;;;5.17;58.98;101027.66;8977117;32;20227;-75
2021/03/18 13:22:34;;;;;;;28.98;12.77;;;;;;;5.97;56.89;101017.50;8974635;32;20245;-75
2021/03/18 13:27:38;;;;;;;19.58;8.77;;;;;;;7.09;54.35;101003.47;8976399;32;20230;-74
2021/03/18 13:32:42;;;;;;;25.15;11.45;;;;;;;7.75;52.40;100995.13;8975913;32;20221;-75
2021/03/18 13:38:03;;;;;;;27.38;12.43;;;;;;;7.62;51.94;100986.97;8980392;32;20224;-73
2021/03/18 13:43:06;;;;;;;28.00;12.30;;;;;;;6.90;53.89;100987.59;8978791;32;21399;-72
2021/03/18 13:48:11;;;;;;;21.75;10.07;;;;;;;6.09;55.65;100985.72;8974895;32;20221;-73
2021/03/18 13:53:14;;;;;;;21.48;10.30;;;;;;;5.28;57.32;100982.72;8948501;32;20213;-74
2021/03/18 13:58:17;;;;;;;23.50;10.40;;;;;;;4.50;61.60;100983.78;8974084;32;20236;-73
2021/03/18 14:03:20;;;;;;;24.48;10.63;;;;;;;4.31;64.78;100977.59;8974182;32;20225;-73
2021/03/18 14:08:23;;;;;;;26.60;10.80;;;;;;;3.89;66.32;100965.25;8975008;32;20237;-74
2021/03/18 14:13:26;;;;;;;21.75;10.68;;;;;;;3.72;67.45;100958.03;8974526;32;20224;-74
2021/03/18 14:18:29;;;;;;;33.13;12.57;;;;;;;3.53;66.77;100949.97;8947921;32;20217;-74
2021/03/18 14:23:31;;;;;;;33.03;12.75;;;;;;;3.72;66.93;100915.50;8948112;32;20220;-73
2021/03/18 14:28:35;;;;;;;28.03;11.90;;;;;;;3.77;65.27;100910.84;8947582;32;20307;-73
2021/03/18 14:33:38;;;;;;;26.77;11.40;;;;;;;4.35;65.07;100905.53;8972758;32;20653;-72
2021/03/18 14:38:41;;;;;;;26.70;11.80;;;;;;;4.14;64.73;100902.09;8973174;32;20929;-73
2021/03/18 14:43:43;;;;;;;28.37;11.77;;;;;;;4.26;65.09;100902.44;8947146;32;21509;-73
2021/03/18 14:48:46;;;;;;;24.02;11.40;;;;;;;4.48;64.09;100899.66;8973878;32;20251;-74
2021/03/18 14:53:49;;;;;;;26.10;11.77;;;;;;;4.68;63.13;100901.34;8973054;32;20227;-73
2021/03/18 14:58:51;;;;;;;26.23;11.50;;;;;;;4.12;64.00;100893.31;8972918;32;20236;-73
2021/03/18 15:03:55;;;;;;;24.63;10.70;;;;;;;3.78;64.52;100885.13;8973087;32;20225;-73
2021/03/18 15:08:58;;;;;;;25.25;11.00;;;;;;;4.05;64.30;100875.91;8972871;32;20281;-72
2021/03/18 15:14:00;;;;;;;19.67;8.80;;;;;;;4.25;64.01;100867.03;8953239;32;20232;-74
2021/03/18 15:19:04;;;;;;;20.95;10.27;;;;;;;4.46;64.21;100870.44;8972879;32;20236;-74
2021/03/18 15:24:08;;;;;;;23.83;9.60;;;;;;;4.58;63.65;100861.00;8973069;32;20228;-74
2021/03/18 15:29:10;;;;;;;19.50;9.60;;;;;;;4.43;63.91;100857.28;8972845;32;20568;-74
2021/03/18 15:34:13;;;;;;;27.38;11.95;;;;;;;4.30;63.90;100854.34;8947061;32;20243;-73
2021/03/18 15:39:16;;;;;;;26.20;12.47;;;;;;;4.32;64.49;100844.50;8971672;32;20244;-74
2021/03/18 15:44:18;;;;;;;20.20;9.50;;;;;;;3.97;65.26;100822.22;8972667;32;20231;-74
2021/03/18 15:49:21;;;;;;;20.85;9.43;;;;;;;3.92;65.70;100826.88;8951606;32;20231;-74
2021/03/18 15:54:23;;;;;;;18.77;9.60;;;;;;;4.08;65.44;100811.09;8977572;32;20220;-74
2021/03/18 15:59:25;;;;;;;18.55;8.30;;;;;;;4.05;65.01;100813.91;8951730;32;20221;-73
2021/03/18 16:04:29;;;;;;;24.27;10.30;;;;;;;3.99;65.48;100806.22;8951237;32;20731;-74
2021/03/18 16:09:31;;;;;;;14.77;8.10;;;;;;;3.65;67.09;100802.47;8977726;32;20240;-73
2021/03/18 16:14:33;;;;;;;20.70;8.53;;;;;;;3.83;66.82;100798.09;8977227;32;20724;-73
2021/03/18 16:19:37;;;;;;;19.90;8.93;;;;;;;3.88;67.11;100788.13;8976570;32;20223;-73
2021/03/18 16:24:39;;;;;;;17.73;8.30;;;;;;;3.92;66.83;100779.03;8950361;32;20224;-74
2021/03/18 16:29:43;;;;;;;19.30;9.03;;;;;;;3.50;68.06;100788.06;8950565;32;20225;-74
2021/03/18 16:34:46;;;;;;;15.83;7.27;;;;;;;3.74;68.00;100791.41;8950091;32;20229;-74
2021/03/18 16:39:48;;;;;;;17.47;9.90;;;;;;;3.60;68.79;100784.06;8976680;32;20225;-74
2021/03/18 16:44:51;;;;;;;18.40;10.27;;;;;;;3.67;69.15;100784.63;8976404;32;20228;-74
2021/03/18 16:49:54;;;;;;;16.87;7.70;;;;;;;3.69;69.74;100788.09;8977028;32;21855;-73
2021/03/18 16:54:56;;;;;;;24.17;11.55;;;;;;;3.58;70.34;100780.63;8975925;32;20220;-73
2021/03/18 16:59:58;;;;;;;17.97;9.40;;;;;;;3.60;70.75;100769.94;8975676;32;20225;-74
2021/03/18 17:05:01;;;;;;;23.37;9.87;;;;;;;3.49;72.45;100775.72;8950017;32;20240;-74
2021/03/18 17:10:06;;;;;;;23.87;10.97;;;;;;;3.60;73.93;100777.91;8975272;32;20311;-75
2021/03/18 17:15:11;;;;;;;24.47;10.80;;;;;;;3.49;75.27;100773.94;8975987;32;20297;-74
2021/03/18 17:20:16;;;;;;;22.90;12.37;;;;;;;3.55;76.03;100772.78;8979617;32;20269;-74
2021/03/18 17:25:23;;;;;;;25.67;12.17;;;;;;;3.65;76.01;100770.59;8952689;32;20217;-74
2021/03/18 17:30:27;;;;;;;25.27;11.83;;;;;;;3.54;76.58;100768.41;8949075;32;20228;-74
2021/03/18 17:35:30;;;;;;;26.23;13.20;;;;;;;3.65;77.16;100754.66;8975230;32;20231;-73
2021/03/18 17:40:35;;;;;;;32.73;14.23;;;;;;;3.56;77.71;100739.97;8976362;32;20623;-74
2021/03/18 17:45:42;;;;;;;32.10;14.10;;;;;;;3.52;77.93;100730.44;8980943;32;20240;-74
2021/03/18 17:50:48;;;;;;;30.50;14.80;;;;;;;3.52;77.72;100740.19;8974374;32;20224;-74
2021/03/18 17:55:50;;;;;;;26.07;14.67;;;;;;;3.44;78.08;100738.75;8975008;32;20243;-74
2021/03/18 18:00:52;;;;;;;33.13;15.95;;;;;;;3.40;78.08;100738.94;8974258;32;20232;-74
2021/03/18 18:05:57;;;;;;;26.63;14.80;;;;;;;3.37;78.39;100741.75;8974240;32;20766;-74
2021/03/18 18:10:59;;;;;;;30.97;15.20;;;;;;;3.32;78.45;100738.44;8948131;32;20269;-73
2021/03/18 18:16:03;;;;;;;45.47;17.80;;;;;;;3.27;78.55;100738.66;8974216;32;20289;-74
2021/03/18 18:21:06;;;;;;;40.47;19.00;;;;;;;3.31;78.80;100731.41;8947450;32;20709;-73
2021/03/18 18:26:09;;;;;;;35.20;18.77;;;;;;;3.30;78.84;100733.22;8973651;32;20229;-73
2021/03/18 18:31:11;;;;;;;33.70;16.70;;;;;;;3.25;78.97;100735.19;8974306;32;20275;-73
2021/03/18 18:36:14;;;;;;;42.13;20.30;;;;;;;3.19;79.07;100740.78;8973777;32;20240;-73
2021/03/18 18:41:16;;;;;;;47.53;23.20;;;;;;;3.19;79.02;100740.78;8973621;32;20228;-73
2021/03/18 18:46:22;;;;;;;48.70;24.00;;;;;;;3.20;79.25;100742.50;8972855;32;20648;-73
2021/03/18 18:51:25;;;;;;;42.30;20.83;;;;;;;3.15;79.26;100745.34;8974829;32;20220;-73
2021/03/18 18:56:28;;;;;;;39.23;19.10;;;;;;;3.08;79.22;100740.41;8973682;32;20690;-72
2021/03/18 19:01:31;;;;;;;44.37;20.33;;;;;;;3.02;79.21;100731.78;8973720;32;20216;-73
2021/03/18 19:06:35;;;;;;;44.90;22.30;;;;;;;3.09;79.12;100719.09;8972941;32;20228;-72
2021/03/18 19:11:37;;;;;;;39.33;20.83;;;;;;;2.96;79.19;100732.06;8973231;32;20227;-73
2021/03/18 19:16:39;;;;;;;47.67;21.50;;;;;;;2.95;79.41;100738.28;8974148;32;20235;-73
2021/03/18 19:21:43;;;;;;;45.93;21.60;;;;;;;2.94;79.46;100746.31;8973026;32;20240;-73
2021/03/18 19:26:45;;;;;;;44.33;21.57;;;;;;;2.97;79.47;100747.03;8973431;32;20225;-73
2021/03/18 19:31:48;;;;;;;44.73;22.33;;;;;;;3.03;79.43;100752.06;8973268;32;21539;-73
2021/03/18 19:36:51;;;;;;;45.07;22.30;;;;;;;3.08;79.18;100748.38;8973430;32;20224;-72
2021/03/18 19:41:54;;;;;;;54.80;22.73;;;;;;;3.02;79.51;100736.25;8973871;32;20227;-73
2021/03/18 19:46:56;;;;;;;49.27;23.33;;;;;;;3.02;79.41;100753.03;8973858;32;20228;-73
2021/03/18 19:51:59;;;;;;;49.73;24.17;;;;;;;3.02;79.71;100746.84;8973279;32;20236;-73
2021/03/18 19:57:03;;;;;;;40.53;22.07;;;;;;;2.98;79.59;100748.75;8972806;32;20233;-73
2021/03/18 20:02:06;;;;;;;40.77;20.20;;;;;;;3.00;79.62;100740.75;8973398;32;20223;-73
2021/03/18 20:07:12;;;;;;;42.67;21.07;;;;;;;2.91;79.70;100742.00;8972538;32;20320;-73
2021/03/18 20:12:14;;;;;;;39.57;19.23;;;;;;;2.94;79.52;100741.03;8972776;32;20271;-73
2021/03/18 20:17:17;;;;;;;41.67;20.00;;;;;;;2.86;79.57;100745.78;8972583;32;21490;-73
2021/03/18 20:22:20;;;;;;;33.57;18.13;;;;;;;2.84;79.65;100741.41;8980508;32;20225;-73
2021/03/18 20:27:24;;;;;;;35.57;18.43;;;;;;;2.85;79.67;100747.56;8972202;32;20282;-73
2021/03/18 20:32:26;;;;;;;34.93;18.37;;;;;;;2.90;79.31;100753.53;8976343;32;20220;-73
2021/03/18 20:37:29;;;;;;;35.07;16.93;;;;;;;2.96;79.22;100752.41;8977366;32;20216;-73
2021/03/18 20:42:32;;;;;;;35.70;17.57;;;;;;;2.94;78.87;100741.88;8977830;32;20725;-73
2021/03/18 20:47:34;;;;;;;32.60;18.00;;;;;;;2.94;79.12;100751.63;8976972;32;20220;-73
2021/03/18 20:52:38;;;;;;;32.50;18.03;;;;;;;2.88;78.96;100746.56;8977876;32;20745;-73
2021/03/18 20:57:40;;;;;;;31.03;16.83;;;;;;;2.69;79.16;100741.19;8916035;32;20248;-73
2021/03/18 21:02:44;;;;;;;33.33;18.03;;;;;;;2.68;78.94;100732.38;8916864;32;20316;-74
2021/03/18 21:07:48;;;;;;;36.00;17.00;;;;;;;2.61;78.87;100733.56;8916819;32;20740;-74
2021/03/18 21:12:51;;;;;;;40.60;17.90;;;;;;;2.43;78.93;100742.25;8916624;32;20256;-74
2021/03/18 21:17:53;;;;;;;35.73;16.57;;;;;;;2.37;78.70;100746.03;8916275;32;20236;-74
2021/03/18 21:22:57;;;;;;;29.07;15.63;;;;;;;2.27;78.95;100742.88;8916539;32;20416;-73
2021/03/18 21:28:00;;;;;;;33.30;15.33;;;;;;;2.15;78.64;100744.25;8915523;32;20225;-74
2021/03/18 21:33:02;;;;;;;29.57;15.73;;;;;;;2.14;79.02;100745.19;8915785;32;20279;-73
2021/03/18 21:38:07;;;;;;;33.30;16.73;;;;;;;2.16;79.01;100753.06;8915236;32;20264;-74
2021/03/18 21:43:09;;;;;;;30.33;16.47;;;;;;;2.10;79.13;100767.41;8913419;32;20799;-73
2021/03/18 21:48:14;;;;;;;28.80;15.37;;;;;;;2.28;79.00;100768.50;8915550;32;20303;-73
2021/03/18 21:53:18;;;;;;;31.80;15.00;;;;;;;2.41;79.11;100774.13;8922264;32;20217;-73
2021/03/18 21:58:20;;;;;;;31.87;15.87;;;;;;;2.50;79.12;100768.47;8975399;32;20216;-74
2021/03/18 22:03:23;;;;;;;29.83;15.80;;;;;;;2.41;79.46;100774.13;8976030;32;20217;-74
2021/03/18 22:08:26;;;;;;;35.63;17.00;;;;;;;2.45;79.31;100770.44;8975119;32;20225;-73
2021/03/18 22:13:28;;;;;;;34.47;15.83;;;;;;;2.51;79.17;100771.97;8975323;32;20224;-74
2021/03/18 22:18:31;;;;;;;32.97;15.77;;;;;;;2.45;79.25;100767.78;8974768;32;21062;-74
2021/03/18 22:23:34;;;;;;;38.73;17.20;;;;;;;2.38;79.86;100769.81;8975632;32;20315;-73
2021/03/18 22:28:36;;;;;;;36.27;17.90;;;;;;;2.53;79.53;100776.34;8974850;32;20632;-74
2021/03/18 22:33:38;;;;;;;36.30;18.27;;;;;;;2.53;79.40;100786.03;8975165;32;20239;-74
2021/03/18 22:38:41;;;;;;;36.40;16.10;;;;;;;2.48;79.12;100783.56;8975147;32;20228;-73
2021/03/18 22:43:43;;;;;;;38.27;18.13;;;;;;;2.40;79.22;100778.56;8974590;32;20329;-74
2021/03/18 22:48:46;;;;;;;38.10;18.40;;;;;;;2.36;78.87;100782.28;8974194;32;20803;-74
2021/03/18 22:53:49;;;;;;;40.77;18.47;;;;;;;2.41;79.08;100784.75;8974385;32;20650;-73
2021/03/18 22:58:51;;;;;;;40.67;18.47;;;;;;;2.43;79.16;100785.53;8949036;32;20328;-74
2021/03/18 23:03:53;;;;;;;39.67;18.13;;;;;;;2.54;79.28;100785.16;8974185;32;20693;-73
2021/03/18 23:08:56;;;;;;;40.80;18.73;;;;;;;2.55;79.14;100782.44;8973854;32;20248;-74
2021/03/18 23:13:58;;;;;;;42.63;18.77;;;;;;;2.55;79.16;100787.75;8974218;32;20244;-74
2021/03/18 23:19:06;;;;;;;47.87;20.63;;;;;;;2.58;79.32;100795.56;8974545;32;20213;-74